createdAt,value
2023-04-16T00:01:27.810Z,14.57
2023-04-16T00:03:55.146Z,13.57
2023-04-16T00:06:22.869Z,15.82
2023-04-16T00:08:50.375Z,13.02
2023-04-16T00:11:17.438Z,17.65
2023-04-16T00:13:44.016Z,17.13
2023-04-16T00:16:10.768Z,18.77
2023-04-16T00:18:37.403Z,17.25
2023-04-16T00:21:04.131Z,17.80
2023-04-16T00:23:31.080Z,18.13
2023-04-16T00:25:59.979Z,18.55
2023-04-16T00:28:27.710Z,17.88
2023-04-16T00:30:54.793Z,22.40
2023-04-16T00:33:21.899Z,21.10
2023-04-16T00:35:48.911Z,23.95
2023-04-16T00:38:16.040Z,21.23
2023-04-16T00:40:42.683Z,21.85
2023-04-16T00:43:09.406Z,22.83
2023-04-16T00:45:36.656Z,25.58
2023-04-16T00:48:04.238Z,24.58
2023-04-16T00:50:31.059Z,24.38
2023-04-16T00:52:58.201Z,24.55
2023-04-16T00:55:24.959Z,24.92
2023-04-16T00:57:51.597Z,25.30
2023-04-16T01:00:18.196Z,23.80
2023-04-16T01:02:44.971Z,26.90
2023-04-16T01:05:11.717Z,27.52
2023-04-16T01:07:38.327Z,28.17
2023-04-16T01:10:05.201Z,28.33
2023-04-16T01:12:32.578Z,27.48
2023-04-16T01:14:59.303Z,28.83
2023-04-16T01:17:25.894Z,27.65
2023-04-16T01:19:52.495Z,27.35
2023-04-16T01:22:19.068Z,29.25
2023-04-16T01:24:45.820Z,29.38
2023-04-16T01:27:12.486Z,29.00
2023-04-16T01:29:39.107Z,30.40
2023-04-16T01:32:05.805Z,29.45
2023-04-16T01:34:32.399Z,29.67
2023-04-16T01:36:59.036Z,27.88
2023-04-16T01:39:25.588Z,29.67
2023-04-16T01:41:52.245Z,27.75
2023-04-16T01:44:18.821Z,29.58
2023-04-16T01:46:45.597Z,29.90
2023-04-16T01:49:12.321Z,29.77
2023-04-16T01:51:39.042Z,27.95
2023-04-16T01:54:05.777Z,27.20
2023-04-16T01:56:32.405Z,26.80
2023-04-16T01:58:58.994Z,25.67
2023-04-16T02:01:25.782Z,27.23
2023-04-16T02:03:53.377Z,28.30
2023-04-16T02:06:20.209Z,27.02
2023-04-16T02:08:46.892Z,28.35
2023-04-16T02:11:13.548Z,28.27
2023-04-16T02:13:40.174Z,30.58
2023-04-16T02:16:06.941Z,26.73
2023-04-16T02:18:33.549Z,25.55
2023-04-16T02:21:00.526Z,26.25
2023-04-16T02:23:27.170Z,26.48
2023-04-16T02:25:54.047Z,26.15
2023-04-16T02:28:20.686Z,26.17
2023-04-16T02:30:47.353Z,26.33
2023-04-16T02:33:14.026Z,24.98
2023-04-16T02:35:41.160Z,24.25
2023-04-16T02:38:08.830Z,23.17
2023-04-16T02:40:35.635Z,23.63
2023-04-16T02:43:02.416Z,23.52
2023-04-16T02:45:31.433Z,23.42
2023-04-16T02:47:58.223Z,22.55
2023-04-16T02:50:24.835Z,22.23
2023-04-16T02:52:51.702Z,22.63
2023-04-16T02:55:18.360Z,22.75
2023-04-16T02:57:44.989Z,21.48
2023-04-16T03:00:12.077Z,21.08
2023-04-16T03:02:38.841Z,21.67
2023-04-16T03:05:06.019Z,21.58
2023-04-16T03:07:32.714Z,19.88
2023-04-16T03:09:59.330Z,20.63
2023-04-16T03:12:26.083Z,20.05
2023-04-16T03:14:52.814Z,19.30
2023-04-16T03:17:19.533Z,21.10
2023-04-16T03:19:46.344Z,19.80
2023-04-16T03:22:13.052Z,20.25
2023-04-16T03:24:39.715Z,19.60
2023-04-16T03:27:06.350Z,20.55
2023-04-16T03:29:33.141Z,19.20
2023-04-16T03:31:59.923Z,18.60
2023-04-16T03:34:26.991Z,19.77
2023-04-16T03:36:53.562Z,18.98
2023-04-16T03:39:20.663Z,18.65
2023-04-16T03:41:47.377Z,18.35
2023-04-16T03:44:14.045Z,18.08
2023-04-16T03:46:40.720Z,18.65
2023-04-16T03:49:07.779Z,16.92
2023-04-16T03:51:34.800Z,15.95
2023-04-16T03:54:01.516Z,18.77
2023-04-16T03:56:28.175Z,17.45
2023-04-16T03:58:54.828Z,16.77
2023-04-16T04:01:21.470Z,17.65
2023-04-16T04:03:48.450Z,15.82
2023-04-16T04:06:15.244Z,16.85
2023-04-16T04:08:41.886Z,17.13
2023-04-16T04:11:08.492Z,15.43
2023-04-16T04:13:35.179Z,17.23
2023-04-16T04:16:01.824Z,15.52
2023-04-16T04:18:28.556Z,16.10
2023-04-16T04:20:55.374Z,15.23
2023-04-16T04:23:22.046Z,15.73
2023-04-16T04:25:48.770Z,15.13
2023-04-16T04:28:15.713Z,14.50
2023-04-16T04:30:42.313Z,14.93
2023-04-16T04:33:08.949Z,15.13
2023-04-16T04:35:35.698Z,14.38
2023-04-16T04:38:03.359Z,15.25
2023-04-16T04:40:30.083Z,15.57
2023-04-16T04:42:56.714Z,14.45
2023-04-16T04:45:26.880Z,14.48
2023-04-16T04:47:54.028Z,13.75
2023-04-16T04:50:21.753Z,13.60
2023-04-16T04:52:48.394Z,13.13
2023-04-16T04:55:16.105Z,13.90
2023-04-16T04:57:42.968Z,13.40
2023-04-16T05:00:10.133Z,14.45
2023-04-16T05:02:37.018Z,13.63
2023-04-16T05:05:04.749Z,13.70
2023-04-16T05:07:31.778Z,14.30
2023-04-16T05:09:58.496Z,14.52
2023-04-16T05:12:25.216Z,13.98
2023-04-16T05:14:52.085Z,15.13
2023-04-16T05:17:18.813Z,13.77
2023-04-16T05:19:45.653Z,13.70
2023-04-16T05:22:12.620Z,14.50
2023-04-16T05:24:39.334Z,14.88
2023-04-16T05:27:06.600Z,14.57
2023-04-16T05:29:33.254Z,14.88
2023-04-16T05:31:59.968Z,14.43
2023-04-16T05:34:26.725Z,15.00
2023-04-16T05:36:53.390Z,14.45
2023-04-16T05:39:20.323Z,16.02
2023-04-16T05:41:47.105Z,16.17
2023-04-16T05:44:15.314Z,14.77
2023-04-16T05:46:42.093Z,16.33
2023-04-16T05:49:09.086Z,15.73
2023-04-16T05:51:36.225Z,15.88
2023-04-16T05:54:02.999Z,16.85
2023-04-16T05:56:29.645Z,16.20
2023-04-16T05:58:56.309Z,16.40
2023-04-16T06:01:23.016Z,16.17
2023-04-16T06:03:49.788Z,15.73
2023-04-16T06:06:16.499Z,15.60
2023-04-16T06:08:43.247Z,15.77
2023-04-16T06:11:10.061Z,16.08
2023-04-16T06:13:37.447Z,14.88
2023-04-16T06:16:04.246Z,16.80
2023-04-16T06:18:31.012Z,17.15
2023-04-16T06:20:59.365Z,14.48
2023-04-16T06:23:26.185Z,15.90
2023-04-16T06:25:52.885Z,13.65
2023-04-16T06:28:19.615Z,14.77
2023-04-16T06:30:47.221Z,16.88
2023-04-16T06:33:13.982Z,15.18
2023-04-16T06:35:40.960Z,16.45
2023-04-16T06:38:07.608Z,15.15
2023-04-16T06:40:34.472Z,15.18
2023-04-16T06:43:01.190Z,14.18
2023-04-16T06:45:27.903Z,14.65
2023-04-16T06:47:54.681Z,14.05
2023-04-16T06:50:22.355Z,15.32
2023-04-16T06:52:49.028Z,14.75
2023-04-16T06:55:15.747Z,14.82
2023-04-16T06:57:42.415Z,15.02
2023-04-16T07:00:09.591Z,14.38
2023-04-16T07:02:36.302Z,13.05
2023-04-16T07:05:03.326Z,13.50
2023-04-16T07:07:29.976Z,14.35
2023-04-16T07:09:56.602Z,14.00
2023-04-16T07:12:23.257Z,14.32
2023-04-16T07:14:50.013Z,14.15
2023-04-16T07:17:16.676Z,13.25
2023-04-16T07:19:43.320Z,14.98
2023-04-16T07:22:10.066Z,15.13
2023-04-16T07:24:36.729Z,13.50
2023-04-16T07:27:03.419Z,14.35
2023-04-16T07:29:30.078Z,13.68
2023-04-16T07:31:57.690Z,15.80
2023-04-16T07:34:24.433Z,15.80
2023-04-16T07:36:51.114Z,16.23
2023-04-16T07:39:17.746Z,14.65
2023-04-16T07:41:44.388Z,16.38
2023-04-16T07:44:11.035Z,15.00
2023-04-16T07:46:46.277Z,16.92
2023-04-16T07:49:14.014Z,16.45
2023-04-16T07:51:40.635Z,15.75
2023-04-16T07:54:07.282Z,15.05
2023-04-16T07:56:33.910Z,16.17
2023-04-16T07:59:07.848Z,16.40
2023-04-16T08:01:45.631Z,15.02
2023-04-16T08:04:12.612Z,15.20
2023-04-16T08:06:39.274Z,15.68
2023-04-16T08:09:06.172Z,16.17
2023-04-16T08:11:33.186Z,16.23
2023-04-16T08:14:00.930Z,16.48
2023-04-16T08:16:27.563Z,16.27
2023-04-16T08:18:54.182Z,16.83
2023-04-16T08:21:20.808Z,16.63
2023-04-16T08:23:47.441Z,17.20
2023-04-16T08:26:14.293Z,17.25
2023-04-16T08:28:40.890Z,17.48
2023-04-16T08:31:07.637Z,16.20
2023-04-16T08:33:34.249Z,17.33
2023-04-16T08:36:00.958Z,18.02
2023-04-16T08:38:27.542Z,17.58
2023-04-16T08:40:56.849Z,16.42
2023-04-16T08:43:25.081Z,15.93
2023-04-16T08:45:53.724Z,16.05
2023-04-16T08:48:22.156Z,15.47
2023-04-16T08:50:52.933Z,16.95
2023-04-16T08:53:39.428Z,17.73
2023-04-16T08:56:09.902Z,16.38
2023-04-16T08:58:38.337Z,15.35
2023-04-16T09:01:06.258Z,16.48
2023-04-16T09:03:35.599Z,16.52
2023-04-16T09:06:04.626Z,16.75
2023-04-16T09:08:32.341Z,16.75
2023-04-16T09:10:59.721Z,16.88
2023-04-16T09:13:27.018Z,18.35
2023-04-16T09:15:54.747Z,18.45
2023-04-16T09:18:21.554Z,18.00
2023-04-16T09:20:50.033Z,18.52
2023-04-16T09:23:17.008Z,19.63
2023-04-16T09:25:43.914Z,21.48
2023-04-16T09:28:11.021Z,20.20
2023-04-16T09:30:37.943Z,22.05
2023-04-16T09:33:17.030Z,20.10
2023-04-16T09:35:48.305Z,22.17
2023-04-16T09:38:15.551Z,20.92
2023-04-16T09:40:42.574Z,22.30
2023-04-16T09:43:17.005Z,20.35
2023-04-16T09:45:54.453Z,20.00
2023-04-16T09:48:31.239Z,19.88
2023-04-16T09:50:58.938Z,20.88
2023-04-16T09:53:30.285Z,18.90
2023-04-16T09:56:01.352Z,18.52
2023-04-16T09:58:29.065Z,21.05
2023-04-16T10:01:03.157Z,20.73
2023-04-16T10:03:34.574Z,21.85
2023-04-16T10:06:21.221Z,23.88
2023-04-16T10:08:53.032Z,22.23
2023-04-16T10:11:20.964Z,22.52
2023-04-16T10:13:48.354Z,23.98
2023-04-16T10:16:15.185Z,24.10
2023-04-16T10:18:43.832Z,24.60
2023-04-16T10:21:15.410Z,24.03
2023-04-16T10:23:43.196Z,22.98
2023-04-16T10:26:09.939Z,23.83
2023-04-16T10:28:37.149Z,22.38
2023-04-16T10:31:07.485Z,19.88
2023-04-16T10:33:37.156Z,20.48
2023-04-16T10:36:14.439Z,20.38
2023-04-16T10:38:50.985Z,19.17
2023-04-16T10:41:19.642Z,18.42
2023-04-16T10:43:48.182Z,17.73
2023-04-16T10:46:22.524Z,17.47
2023-04-16T10:48:50.897Z,17.92
2023-04-16T10:51:34.442Z,17.53
2023-04-16T10:54:20.280Z,17.95
2023-04-16T10:56:47.799Z,17.05
2023-04-16T10:59:18.776Z,17.25
2023-04-16T11:01:51.230Z,17.42
2023-04-16T11:04:21.186Z,17.02
2023-04-16T11:07:14.117Z,16.17
2023-04-16T11:10:00.056Z,15.35
2023-04-16T11:12:30.073Z,15.60
2023-04-16T11:15:04.481Z,14.80
2023-04-16T11:17:37.093Z,15.68
2023-04-16T11:20:19.324Z,15.38
2023-04-16T11:23:00.862Z,14.85
2023-04-16T11:25:30.297Z,13.63
2023-04-16T11:30:33.317Z,13.93
2023-04-16T11:33:06.086Z,12.80
2023-04-16T11:35:32.867Z,13.15
2023-04-16T11:37:59.633Z,15.02
2023-04-16T11:40:31.227Z,13.07
2023-04-16T11:43:03.060Z,12.63
2023-04-16T11:45:29.855Z,12.18
2023-04-16T11:47:58.062Z,12.10
2023-04-16T11:50:26.376Z,12.55
2023-04-16T11:52:54.727Z,11.43
2023-04-16T11:55:21.976Z,11.90
2023-04-16T11:57:49.271Z,11.68
2023-04-16T12:00:19.188Z,10.93
2023-04-16T12:02:53.637Z,12.02
2023-04-16T12:05:31.118Z,11.25
2023-04-16T12:08:00.997Z,11.60
2023-04-16T12:10:28.419Z,10.90
2023-04-16T12:13:10.036Z,12.05
2023-04-16T12:15:53.902Z,12.30
2023-04-16T12:18:23.102Z,11.98
2023-04-16T12:20:53.302Z,11.07
2023-04-16T12:23:33.962Z,11.10
2023-04-16T12:26:10.581Z,10.40
2023-04-16T12:28:38.619Z,11.25
2023-04-16T12:31:05.978Z,12.38
2023-04-16T12:33:33.005Z,9.98
2023-04-16T12:35:59.840Z,9.15
2023-04-16T12:38:27.253Z,8.02
2023-04-16T12:40:57.010Z,8.25
2023-04-16T12:43:24.178Z,8.10
2023-04-16T12:45:51.100Z,8.15
2023-04-16T12:48:17.782Z,8.48
2023-04-16T12:50:44.632Z,7.53
2023-04-16T12:53:12.049Z,7.53
2023-04-16T12:55:39.347Z,7.65
2023-04-16T12:58:06.654Z,7.38
2023-04-16T13:00:33.281Z,6.35
2023-04-16T13:03:00.133Z,6.93
2023-04-16T13:05:27.235Z,6.10
2023-04-16T13:07:54.132Z,6.22
2023-04-16T13:10:22.240Z,6.40
2023-04-16T13:12:49.159Z,6.30
2023-04-16T13:15:15.895Z,5.72
2023-04-16T13:17:42.572Z,5.85
2023-04-16T13:20:10.003Z,5.97
2023-04-16T13:22:36.874Z,6.57
2023-04-16T13:25:03.889Z,5.63
2023-04-16T13:27:32.198Z,6.10
2023-04-16T13:29:58.961Z,6.10
2023-04-16T13:32:25.777Z,6.15
2023-04-16T13:34:52.463Z,5.43
2023-04-16T13:37:19.034Z,6.35
2023-04-16T13:39:45.742Z,5.85
2023-04-16T13:42:12.387Z,5.93
2023-04-16T13:44:39.040Z,5.85
2023-04-16T13:47:05.743Z,5.75
2023-04-16T13:49:35.591Z,6.00
2023-04-16T13:52:02.650Z,6.30
2023-04-16T13:54:29.332Z,7.13
2023-04-16T13:56:56.053Z,7.25
2023-04-16T13:59:22.864Z,7.40
2023-04-16T14:01:49.608Z,9.30
2023-04-16T14:04:16.441Z,7.72
2023-04-16T14:06:43.279Z,8.80
2023-04-16T14:09:11.004Z,10.52
2023-04-16T14:11:37.893Z,10.60
2023-04-16T14:14:05.001Z,10.57
2023-04-16T14:16:31.781Z,10.25
2023-04-16T14:18:58.410Z,11.30
2023-04-16T14:21:25.171Z,10.75
2023-04-16T14:23:51.772Z,11.20
2023-04-16T14:26:18.475Z,11.32
2023-04-16T14:28:45.164Z,12.25
2023-04-16T14:31:11.805Z,13.07
2023-04-16T14:33:38.440Z,12.43
2023-04-16T14:36:05.802Z,12.85
2023-04-16T14:38:32.577Z,12.77
2023-04-16T14:41:00.541Z,13.50
2023-04-16T14:43:27.545Z,15.30
2023-04-16T14:45:54.437Z,13.75
2023-04-16T14:48:22.082Z,13.43
2023-04-16T14:50:48.926Z,15.35
2023-04-16T14:53:15.951Z,15.23
2023-04-16T14:55:42.664Z,15.70
2023-04-16T14:58:10.830Z,16.23
2023-04-16T15:00:37.702Z,15.80
2023-04-16T15:03:05.142Z,15.23
2023-04-16T15:05:32.065Z,15.52
2023-04-16T15:07:58.744Z,16.73
2023-04-16T15:10:25.407Z,16.23
2023-04-16T15:12:52.118Z,16.77
2023-04-16T15:15:18.829Z,17.27
2023-04-16T15:17:45.747Z,17.05
2023-04-16T15:20:12.949Z,16.50
2023-04-16T15:22:40.214Z,17.35
2023-04-16T15:25:07.403Z,17.77
2023-04-16T15:27:34.007Z,17.85
2023-04-16T15:30:00.693Z,16.83
2023-04-16T15:32:27.385Z,17.13
2023-04-16T15:34:54.113Z,15.88
2023-04-16T15:37:20.845Z,16.42
2023-04-16T15:39:47.514Z,16.02
2023-04-16T15:42:16.715Z,15.50
2023-04-16T15:44:43.625Z,15.27
2023-04-16T15:47:10.374Z,14.60
2023-04-16T15:49:37.145Z,15.65
2023-04-16T15:52:04.069Z,16.10
2023-04-16T15:54:31.842Z,16.48
2023-04-16T15:56:59.071Z,15.85
2023-04-16T15:59:29.141Z,14.88
2023-04-16T16:01:55.876Z,15.13
2023-04-16T16:04:23.192Z,14.40
2023-04-16T16:06:50.492Z,14.45
2023-04-16T16:09:17.401Z,14.55
2023-04-16T16:11:44.325Z,15.52
2023-04-16T16:14:11.037Z,15.80
2023-04-16T16:16:37.893Z,15.32
2023-04-16T16:19:04.680Z,15.20
2023-04-16T16:21:32.727Z,15.27
2023-04-16T16:23:59.396Z,17.10
2023-04-16T16:26:26.068Z,15.23
2023-04-16T16:28:52.720Z,14.43
2023-04-16T16:31:19.521Z,15.40
2023-04-16T16:33:46.219Z,15.02
2023-04-16T16:36:13.093Z,15.05
2023-04-16T16:38:40.809Z,14.20
2023-04-16T16:41:07.604Z,14.80
2023-04-16T16:43:36.719Z,14.90
2023-04-16T16:46:03.601Z,13.80
2023-04-16T16:48:30.319Z,14.50
2023-04-16T16:50:56.918Z,15.15
2023-04-16T16:53:23.609Z,14.55
2023-04-16T16:55:50.243Z,14.70
2023-04-16T16:58:17.119Z,14.40
2023-04-16T17:00:43.900Z,13.95
2023-04-16T17:03:10.852Z,14.45
2023-04-16T17:05:37.733Z,14.10
2023-04-16T17:08:04.518Z,15.48
2023-04-16T17:10:31.369Z,18.95
2023-04-16T17:12:58.012Z,13.75
2023-04-16T17:15:24.710Z,14.00
2023-04-16T17:17:51.485Z,14.93
2023-04-16T17:20:18.324Z,13.45
2023-04-16T17:22:44.979Z,13.05
2023-04-16T17:25:11.942Z,14.02
2023-04-16T17:27:41.438Z,12.90
2023-04-16T17:30:08.638Z,13.32
2023-04-16T17:32:35.872Z,13.32
2023-04-16T17:35:04.329Z,12.55
2023-04-16T17:37:31.231Z,13.23
2023-04-16T17:39:57.903Z,12.68
2023-04-16T17:42:24.916Z,13.43
2023-04-16T17:44:51.913Z,11.75
2023-04-16T17:47:18.563Z,14.00
2023-04-16T17:49:45.485Z,14.60
2023-04-16T17:52:13.060Z,13.45
2023-04-16T17:54:39.638Z,12.07
2023-04-16T17:57:06.285Z,12.15
2023-04-16T17:59:33.192Z,13.07
2023-04-16T18:01:59.985Z,13.65
2023-04-16T18:04:26.736Z,12.00
2023-04-16T18:06:53.494Z,12.02
2023-04-16T18:09:20.164Z,11.82
2023-04-16T18:11:47.045Z,12.63
2023-04-16T18:14:16.947Z,11.68
2023-04-16T18:16:43.741Z,12.60
2023-04-16T18:19:10.425Z,12.18
2023-04-16T18:21:37.040Z,12.13
2023-04-16T18:24:03.823Z,12.73
2023-04-16T18:26:31.168Z,11.63
2023-04-16T18:31:27.185Z,11.88
2023-04-16T18:33:57.892Z,12.88
2023-04-16T18:36:26.873Z,11.73
2023-04-16T18:39:01.804Z,15.37
2023-04-16T18:41:29.663Z,12.82
2023-04-16T18:43:56.402Z,11.90
2023-04-16T18:46:23.183Z,12.60
2023-04-16T18:48:49.872Z,13.57
2023-04-16T18:51:16.831Z,11.75
2023-04-16T18:53:45.613Z,12.82
2023-04-16T18:56:12.611Z,12.13
2023-04-16T18:58:39.290Z,11.63
2023-04-16T19:01:11.253Z,12.10
2023-04-16T19:03:38.430Z,12.02
2023-04-16T19:06:06.233Z,13.18
2023-04-16T19:08:33.112Z,12.55
2023-04-16T19:10:59.724Z,12.65
2023-04-16T19:13:26.502Z,12.98
2023-04-16T19:15:58.585Z,14.18
2023-04-16T19:18:25.569Z,15.25
2023-04-16T19:20:52.207Z,14.32
2023-04-16T19:23:19.231Z,16.70
2023-04-16T19:25:46.534Z,15.77
2023-04-16T19:28:13.122Z,15.68
2023-04-16T19:30:40.357Z,17.08
2023-04-16T19:33:07.120Z,16.27
2023-04-16T19:35:34.712Z,16.45
2023-04-16T19:38:01.325Z,16.75
2023-04-16T19:40:27.954Z,17.42
2023-04-16T19:42:55.044Z,16.25
2023-04-16T19:45:25.757Z,15.98
2023-04-16T19:47:52.529Z,18.25
2023-04-16T19:50:19.649Z,17.02
2023-04-16T19:52:46.324Z,15.30
2023-04-16T19:55:13.035Z,17.20
2023-04-16T19:57:39.645Z,16.80
2023-04-16T20:00:11.116Z,17.20
2023-04-16T20:02:38.273Z,15.32
2023-04-16T20:05:05.417Z,15.75
2023-04-16T20:07:32.061Z,17.17
2023-04-16T20:09:58.768Z,16.95
2023-04-16T20:12:25.387Z,15.77
2023-04-16T20:14:52.025Z,16.23
2023-04-16T20:17:19.722Z,16.85
2023-04-16T20:19:49.584Z,17.17
2023-04-16T20:22:18.239Z,18.33
2023-04-16T20:24:47.895Z,16.40
2023-04-16T20:27:15.422Z,16.98
2023-04-16T20:29:42.201Z,17.75
2023-04-16T20:32:08.947Z,17.10
2023-04-16T20:34:36.734Z,17.08
2023-04-16T20:37:06.208Z,17.05
2023-04-16T20:42:10.077Z,17.75
2023-04-16T20:44:42.474Z,17.83
2023-04-16T20:47:09.717Z,16.58
2023-04-16T20:49:36.342Z,15.85
2023-04-16T20:52:03.036Z,16.60
2023-04-16T20:54:30.450Z,15.93
2023-04-16T20:56:57.733Z,17.05
2023-04-16T20:59:25.075Z,16.05
2023-04-16T21:01:54.955Z,15.75
2023-04-16T21:04:21.803Z,16.67
2023-04-16T21:06:49.133Z,17.33
2023-04-16T21:09:16.557Z,17.02
2023-04-16T21:11:43.116Z,18.40
2023-04-16T21:14:09.734Z,20.50
2023-04-16T21:16:36.431Z,20.20
2023-04-16T21:19:03.423Z,21.80
2023-04-16T21:21:30.277Z,20.08
2023-04-16T21:23:56.892Z,20.33
2023-04-16T21:26:23.579Z,18.77
2023-04-16T21:28:50.415Z,18.27
2023-04-16T21:31:17.218Z,18.08
2023-04-16T21:33:44.015Z,19.35
2023-04-16T21:36:11.573Z,18.73
2023-04-16T21:38:38.289Z,18.30
2023-04-16T21:41:04.863Z,19.45
2023-04-16T21:43:32.259Z,18.17
2023-04-16T21:45:59.703Z,17.17
2023-04-16T21:48:27.087Z,18.00
2023-04-16T21:50:58.336Z,18.50
2023-04-16T21:53:25.970Z,18.50
2023-04-16T21:55:52.595Z,19.70
2023-04-16T21:58:19.282Z,16.85
2023-04-16T22:00:47.179Z,25.67
2023-04-16T22:03:14.434Z,19.08
2023-04-16T22:05:41.150Z,18.60
2023-04-16T22:08:23.236Z,18.60
2023-04-16T22:10:51.327Z,16.10
2023-04-16T22:13:18.310Z,20.92
2023-04-16T22:15:44.882Z,23.92
2023-04-16T22:18:11.774Z,21.23
2023-04-16T22:20:39.303Z,23.73
2023-04-16T22:23:08.995Z,19.33
2023-04-16T22:25:35.853Z,20.90
2023-04-16T22:28:02.536Z,23.20
2023-04-16T22:30:29.221Z,23.55
2023-04-16T22:32:56.025Z,23.40
2023-04-16T22:35:22.666Z,21.33
2023-04-16T22:37:49.290Z,21.00
2023-04-16T22:40:16.719Z,18.73
2023-04-16T22:42:43.378Z,19.55
2023-04-16T22:45:10.470Z,17.25
2023-04-16T22:47:37.173Z,17.45
2023-04-16T22:50:04.010Z,21.13
2023-04-16T22:52:30.606Z,19.92
2023-04-16T22:54:57.289Z,20.52
2023-04-16T22:57:26.887Z,22.13
2023-04-16T22:59:53.577Z,21.77
2023-04-16T23:02:21.472Z,25.15
2023-04-16T23:04:48.187Z,20.98
2023-04-16T23:07:15.658Z,23.17
2023-04-16T23:09:42.501Z,23.75
2023-04-16T23:12:09.106Z,22.00
2023-04-16T23:14:36.973Z,19.95
2023-04-16T23:17:03.878Z,25.52
2023-04-16T23:19:31.790Z,22.40
2023-04-16T23:21:58.721Z,23.58
2023-04-16T23:24:25.462Z,23.90
2023-04-16T23:26:52.764Z,28.15
2023-04-16T23:29:20.654Z,23.83
2023-04-16T23:31:47.441Z,21.33
2023-04-16T23:34:14.233Z,22.33
2023-04-16T23:36:40.916Z,20.98
2023-04-16T23:39:07.561Z,21.52
2023-04-16T23:41:34.625Z,19.92
2023-04-16T23:44:01.227Z,22.27
2023-04-16T23:46:27.847Z,21.27
2023-04-16T23:48:55.418Z,26.58
2023-04-16T23:51:22.314Z,21.20
2023-04-16T23:53:48.974Z,24.80
2023-04-16T23:56:16.336Z,24.45
2023-04-16T23:58:42.989Z,29.27
